Time;durP1;ratioP1;P1;durP2;ratioP2;P2;SDS_P1;SDS_P2;PMS_P1;PMS_P2;Temp;Humidity;BMP_temperature;BMP_pressure;BME280_temperature;BME280_humidity;BME280_pressure;Samples;Min_cycle;Max_cycle;Signal;HPM_P1;HPM_P2
2021/05/07 00:01:10;;;;;;;;;;;;;;;;;;4976786;28;20304;-56
2021/05/07 00:03:36;;;;;;;;;;;;;;;;;;4975025;28;20302;-58
2021/05/07 00:06:04;;;;;;;;;;;;;;;;;;4976465;28;19910;-58
2021/05/07 00:08:29;;;;;;;;;;;;;;;;;;4975317;28;20385;-63
2021/05/07 00:10:54;;;;;;;;;;;;;;;;;;4975104;28;19946;-57
2021/05/07 00:13:19;;;;;;;;;;;;;;;;;;4974999;28;20325;-58
2021/05/07 00:15:45;;;;;;;;;;;;;;;;;;4959043;28;19933;-59
2021/05/07 00:18:10;;;;;;;;;;;;;;;;;;4974857;28;20255;-57
2021/05/07 00:20:35;;;;;;;;;;;;;;;;;;4974431;28;19968;-58
2021/05/07 00:23:00;;;;;;;;;;;;;;;;;;4975910;28;19914;-59
2021/05/07 00:25:26;;;;;;;;;;;;;;;;;;4975922;28;20009;-59
2021/05/07 00:27:51;;;;;;;;;;;;;;;;;;4974506;28;19929;-58
2021/05/07 00:30:16;;;;;;;;;;;;;;;;;;4974484;28;20381;-58
2021/05/07 00:32:41;;;;;;;;;;;;;;;;;;4975720;28;20282;-58
2021/05/07 00:35:06;;;;;;;;;;;;;;;;;;4975824;28;20378;-58
2021/05/07 00:37:32;;;;;;;;;;;;;;;;;;4974357;28;19906;-57
2021/05/07 00:39:57;;;;;;;;;;;;;;;;;;4973693;28;20263;-57
2021/05/07 00:42:22;;;;;;;;;;;;;;;;;;4963586;28;20341;-59
2021/05/07 00:44:47;;;;;;;;;;;;;;;;;;4974120;28;19914;-58
2021/05/07 00:47:13;;;;;;;;;;;;;;;;;;4973926;28;20014;-56
2021/05/07 00:49:39;;;;;;;;;;;;;;;;;;4975043;28;19957;-57
2021/05/07 00:52:09;;;;;;;;;;;;;;;;;;4974103;28;19956;-57
2021/05/07 00:54:34;;;;;;;;;;;;;;;;;;4973969;28;19957;-58
2021/05/07 00:56:59;;;;;;;;;;;;;;;;;;4975705;28;19917;-59
2021/05/07 00:59:24;;;;;;;;;;;;;;;;;;4973129;28;20294;-58
2021/05/07 01:01:50;;;;;;;;;;;;;;;;;;4973907;28;19980;-58
2021/05/07 01:04:15;;;;;;;;;;;;;;;;;;4975208;28;20405;-57
2021/05/07 01:06:40;;;;;;;;;;;;;;;;;;4974312;28;19910;-57
2021/05/07 01:09:06;;;;;;;;;;;;;;;;;;4975529;28;20358;-58
2021/05/07 01:11:31;;;;;;;;;;;;;;;;;;4975082;28;19952;-57
2021/05/07 01:13:56;;;;;;;;;;;;;;;;;;4974669;28;19914;-58
2021/05/07 01:16:22;;;;;;;;;;;;;;;;;;4975272;28;19910;-58
2021/05/07 01:18:47;;;;;;;;;;;;;;;;;;4973472;28;20381;-58
2021/05/07 01:21:12;;;;;;;;;;;;;;;;;;4973818;28;20390;-57
2021/05/07 01:23:38;;;;;;;;;;;;;;;;;;4973266;28;20005;-56
2021/05/07 01:26:03;;;;;;;;;;;;;;;;;;4974845;28;19989;-58
2021/05/07 01:28:28;;;;;;;;;;;;;;;;;;4973620;28;19938;-57
2021/05/07 01:30:55;;;;;;;;;;;;;;;;;;4957414;28;19910;-57
2021/05/07 01:33:36;;;;;;;;;;;;;;;;;;4973715;28;19910;-58
2021/05/07 01:36:01;;;;;;;;;;;;;;;;;;4973312;28;20286;-58
2021/05/07 01:38:27;;;;;;;;;;;;;;;;;;4975059;28;19917;-58
2021/05/07 01:40:52;;;;;;;;;;;;;;;;;;4973103;28;20012;-59
2021/05/07 01:43:20;;;;;;;;;;;;;;;;;;4973270;28;20373;-57
2021/05/07 01:45:49;;;;;;;;;;;;;;;;;;4972790;28;19918;-58
2021/05/07 01:48:17;;;;;;;;;;;;;;;;;;4973529;28;19914;-59
2021/05/07 01:50:43;;;;;;;;;;;;;;;;;;4960705;28;19981;-58
2021/05/07 01:53:08;;;;;;;;;;;;;;;;;;4954087;29;19911;-58
2021/05/07 01:55:33;;;;;;;;;;;;;;;;;;4973496;28;20324;-58
2021/05/07 01:57:58;;;;;;;;;;;;;;;;;;4972775;28;19906;-58
2021/05/07 02:00:24;;;;;;;;;;;;;;;;;;4957064;28;19910;-58
2021/05/07 02:02:49;;;;;;;;;;;;;;;;;;4974148;28;19913;-58
2021/05/07 02:05:28;;;;;;;;;;;;;;;;;;4965216;28;19914;-57
2021/05/07 02:07:53;;;;;;;;;;;;;;;;;;4954731;28;19916;-58
2021/05/07 02:10:18;;;;;;;;;;;;;;;;;;4954859;28;19910;-58
2021/05/07 02:12:44;;;;;;;;;;;;;;;;;;4953504;29;20339;-58
2021/05/07 02:15:09;;;;;;;;;;;;;;;;;;4972849;28;19906;-57
2021/05/07 02:17:34;;;;;;;;;;;;;;;;;;4965718;28;20288;-59
2021/05/07 02:20:00;;;;;;;;;;;;;;;;;;4937282;29;19917;-57
2021/05/07 02:22:25;;;;;;;;;;;;;;;;;;4954397;29;19950;-58
2021/05/07 02:24:50;;;;;;;;;;;;;;;;;;4953377;29;19914;-58
2021/05/07 02:27:15;;;;;;;;;;;;;;;;;;4953470;29;20389;-58
2021/05/07 02:29:41;;;;;;;;;;;;;;;;;;4937478;29;19953;-59
2021/05/07 02:32:06;;;;;;;;;;;;;;;;;;4954465;29;19961;-58
2021/05/07 02:34:31;;;;;;;;;;;;;;;;;;4937473;29;20467;-59
2021/05/07 02:36:56;;;;;;;;;;;;;;;;;;4952847;29;19914;-59
2021/05/07 02:39:22;;;;;;;;;;;;;;;;;;4953385;29;19914;-57
2021/05/07 02:41:47;;;;;;;;;;;;;;;;;;4936876;29;19914;-59
2021/05/07 02:44:12;;;;;;;;;;;;;;;;;;4954320;29;19979;-59
2021/05/07 02:46:38;;;;;;;;;;;;;;;;;;4936904;29;19925;-59
2021/05/07 02:49:03;;;;;;;;;;;;;;;;;;4953316;29;19996;-59
2021/05/07 02:51:29;;;;;;;;;;;;;;;;;;4953368;29;19910;-58
2021/05/07 02:53:55;;;;;;;;;;;;;;;;;;4936598;29;19916;-58
2021/05/07 02:56:20;;;;;;;;;;;;;;;;;;4954778;28;19910;-58
2021/05/07 02:58:46;;;;;;;;;;;;;;;;;;4954627;28;19906;-59
2021/05/07 03:01:11;;;;;;;;;;;;;;;;;;4952532;29;19915;-58
2021/05/07 03:03:36;;;;;;;;;;;;;;;;;;4953253;29;19922;-59
2021/05/07 03:06:02;;;;;;;;;;;;;;;;;;4953964;29;19915;-59
2021/05/07 03:08:27;;;;;;;;;;;;;;;;;;4953254;29;20236;-57
2021/05/07 03:10:52;;;;;;;;;;;;;;;;;;4937016;29;19907;-58
2021/05/07 03:13:18;;;;;;;;;;;;;;;;;;4954063;29;19910;-56
2021/05/07 03:15:43;;;;;;;;;;;;;;;;;;4954276;29;19925;-59
2021/05/07 03:18:08;;;;;;;;;;;;;;;;;;4953828;29;19910;-57
2021/05/07 03:20:33;;;;;;;;;;;;;;;;;;4954001;29;19918;-58
2021/05/07 03:22:59;;;;;;;;;;;;;;;;;;4953849;28;19935;-58
2021/05/07 03:25:24;;;;;;;;;;;;;;;;;;4940825;29;20315;-58
2021/05/07 03:27:49;;;;;;;;;;;;;;;;;;4956857;29;20290;-58
2021/05/07 03:30:16;;;;;;;;;;;;;;;;;;4957499;29;19925;-59
2021/05/07 03:32:41;;;;;;;;;;;;;;;;;;4956724;29;19907;-58
2021/05/07 03:35:06;;;;;;;;;;;;;;;;;;4957752;29;20377;-59
2021/05/07 03:37:31;;;;;;;;;;;;;;;;;;4956592;29;19957;-58
2021/05/07 03:39:56;;;;;;;;;;;;;;;;;;4957557;29;20255;-58
2021/05/07 03:42:22;;;;;;;;;;;;;;;;;;4958281;29;19915;-57
2021/05/07 03:44:47;;;;;;;;;;;;;;;;;;4957528;29;20005;-57
2021/05/07 03:47:12;;;;;;;;;;;;;;;;;;4957299;29;20055;-58
2021/05/07 03:49:37;;;;;;;;;;;;;;;;;;4957557;29;20346;-59
2021/05/07 03:52:03;;;;;;;;;;;;;;;;;;4940227;29;19985;-58
2021/05/07 03:54:28;;;;;;;;;;;;;;;;;;4956223;29;20313;-57
2021/05/07 03:56:53;;;;;;;;;;;;;;;;;;4957405;29;20320;-59
2021/05/07 03:59:18;;;;;;;;;;;;;;;;;;4957148;29;19917;-56
2021/05/07 04:01:44;;;;;;;;;;;;;;;;;;4957172;29;19918;-57
2021/05/07 04:04:09;;;;;;;;;;;;;;;;;;4955794;29;19910;-57
2021/05/07 04:06:35;;;;;;;;;;;;;;;;;;4957234;28;20294;-57
2021/05/07 04:09:08;;;;;;;;;;;;;;;;;;4955738;29;20283;-58
2021/05/07 04:14:14;;;;;;;;;;;;;;;;;;4956848;29;19915;-59
2021/05/07 04:16:39;;;;;;;;;;;;;;;;;;4957183;29;19910;-58
2021/05/07 04:19:05;;;;;;;;;;;;;;;;;;4956779;29;19957;-57
2021/05/07 04:21:30;;;;;;;;;;;;;;;;;;4957132;29;19944;-57
2021/05/07 04:23:55;;;;;;;;;;;;;;;;;;4955515;29;20008;-57
2021/05/07 04:26:20;;;;;;;;;;;;;;;;;;4956351;29;19914;-58
2021/05/07 04:28:46;;;;;;;;;;;;;;;;;;4955572;29;20454;-56
2021/05/07 04:31:11;;;;;;;;;;;;;;;;;;4956958;28;19910;-56
2021/05/07 04:33:36;;;;;;;;;;;;;;;;;;4956719;28;19937;-57
2021/05/07 04:36:02;;;;;;;;;;;;;;;;;;4955252;29;19986;-57
2021/05/07 04:38:27;;;;;;;;;;;;;;;;;;4955475;29;20308;-56
2021/05/07 04:40:52;;;;;;;;;;;;;;;;;;4956526;29;19914;-56
2021/05/07 04:43:17;;;;;;;;;;;;;;;;;;4939511;29;20732;-61
2021/05/07 04:45:43;;;;;;;;;;;;;;;;;;4957727;28;20356;-56
2021/05/07 04:48:08;;;;;;;;;;;;;;;;;;4958097;29;20318;-56
2021/05/07 04:50:33;;;;;;;;;;;;;;;;;;4957630;29;20259;-57
2021/05/07 04:52:58;;;;;;;;;;;;;;;;;;4957104;29;19915;-55
2021/05/07 04:55:24;;;;;;;;;;;;;;;;;;4955402;29;19917;-59
2021/05/07 04:57:50;;;;;;;;;;;;;;;;;;4955899;29;20048;-55
2021/05/07 05:00:15;;;;;;;;;;;;;;;;;;4955859;29;19910;-55
2021/05/07 05:02:40;;;;;;;;;;;;;;;;;;4958535;29;19914;-58
2021/05/07 05:05:05;;;;;;;;;;;;;;;;;;4956930;28;19910;-57
2021/05/07 05:07:31;;;;;;;;;;;;;;;;;;4957066;29;19957;-55
2021/05/07 05:09:56;;;;;;;;;;;;;;;;;;4956717;29;19986;-55
2021/05/07 05:12:21;;;;;;;;;;;;;;;;;;4960269;28;20001;-56
2021/05/07 05:14:46;;;;;;;;;;;;;;;;;;4954719;29;19914;-56
2021/05/07 05:17:12;;;;;;;;;;;;;;;;;;4954299;29;19911;-56
2021/05/07 05:19:37;;;;;;;;;;;;;;;;;;4956139;29;20294;-57
2021/05/07 05:22:02;;;;;;;;;;;;;;;;;;4954878;29;19965;-58
2021/05/07 05:24:27;;;;;;;;;;;;;;;;;;4956588;29;20006;-57
2021/05/07 05:26:53;;;;;;;;;;;;;;;;;;4956139;29;19911;-57
2021/05/07 05:29:18;;;;;;;;;;;;;;;;;;4954816;29;20012;-57
2021/05/07 05:31:43;;;;;;;;;;;;;;;;;;4956613;28;19977;-57
2021/05/07 05:34:08;;;;;;;;;;;;;;;;;;4954545;29;20310;-57
2021/05/07 05:36:34;;;;;;;;;;;;;;;;;;4954821;29;19921;-58
2021/05/07 05:38:59;;;;;;;;;;;;;;;;;;4938550;29;19910;-57
2021/05/07 05:41:24;;;;;;;;;;;;;;;;;;4955688;29;20454;-57
2021/05/07 05:43:50;;;;;;;;;;;;;;;;;;4954366;29;19931;-56
2021/05/07 05:46:15;;;;;;;;;;;;;;;;;;4937662;29;19926;-57
2021/05/07 05:48:40;;;;;;;;;;;;;;;;;;4955595;29;20271;-56
2021/05/07 05:51:05;;;;;;;;;;;;;;;;;;4954324;29;20001;-58
2021/05/07 05:53:31;;;;;;;;;;;;;;;;;;4955449;29;20266;-59
2021/05/07 05:55:56;;;;;;;;;;;;;;;;;;4954375;29;19974;-58
2021/05/07 05:58:21;;;;;;;;;;;;;;;;;;4954741;29;19910;-57
2021/05/07 06:00:46;;;;;;;;;;;;;;;;;;4955366;28;19973;-58
2021/05/07 06:03:12;;;;;;;;;;;;;;;;;;4953725;29;20321;-58
2021/05/07 06:05:37;;;;;;;;;;;;;;;;;;4955150;28;19911;-56
2021/05/07 06:08:02;;;;;;;;;;;;;;;;;;4937971;29;19993;-57
2021/05/07 06:10:28;;;;;;;;;;;;;;;;;;4953509;29;19921;-58
2021/05/07 06:12:54;;;;;;;;;;;;;;;;;;4954923;28;19996;-57
2021/05/07 06:15:19;;;;;;;;;;;;;;;;;;4953890;29;19957;-56
2021/05/07 06:17:45;;;;;;;;;;;;;;;;;;4954975;28;19914;-56
2021/05/07 06:20:10;;;;;;;;;;;;;;;;;;4955437;28;19960;-59
2021/05/07 06:22:35;;;;;;;;;;;;;;;;;;4972168;28;19913;-57
2021/05/07 06:25:00;;;;;;;;;;;;;;;;;;4955158;28;19914;-58
2021/05/07 06:27:26;;;;;;;;;;;;;;;;;;4972166;28;19993;-56
2021/05/07 06:29:51;;;;;;;;;;;;;;;;;;4972801;28;19917;-58
2021/05/07 06:32:16;;;;;;;;;;;;;;;;;;4954733;28;19918;-57
2021/05/07 06:34:41;;;;;;;;;;;;;;;;;;4971952;28;19910;-58
2021/05/07 06:37:07;;;;;;;;;;;;;;;;;;4971384;28;20425;-58
2021/05/07 06:39:32;;;;;;;;;;;;;;;;;;4973686;28;19957;-57
2021/05/07 06:41:57;;;;;;;;;;;;;;;;;;4972718;28;19914;-58
2021/05/07 06:44:23;;;;;;;;;;;;;;;;;;4972317;28;19917;-58
2021/05/07 06:46:48;;;;;;;;;;;;;;;;;;4972660;28;19918;-58
2021/05/07 06:49:13;;;;;;;;;;;;;;;;;;4973770;28;20250;-59
2021/05/07 06:51:39;;;;;;;;;;;;;;;;;;4973039;28;20389;-57
2021/05/07 06:54:06;;;;;;;;;;;;;;;;;;4973959;28;20294;-58
2021/05/07 06:56:31;;;;;;;;;;;;;;;;;;4971950;28;19917;-56
2021/05/07 06:58:56;;;;;;;;;;;;;;;;;;4975394;28;19914;-57
2021/05/07 07:01:22;;;;;;;;;;;;;;;;;;4976113;28;20417;-57
2021/05/07 07:03:48;;;;;;;;;;;;;;;;;;4976494;28;19918;-58
2021/05/07 07:06:13;;;;;;;;;;;;;;;;;;4977474;28;20278;-59
2021/05/07 07:08:38;;;;;;;;;;;;;;;;;;4975829;28;19957;-58
2021/05/07 07:11:04;;;;;;;;;;;;;;;;;;4960226;28;20269;-57
2021/05/07 07:13:29;;;;;;;;;;;;;;;;;;4977244;28;20009;-57
2021/05/07 07:15:54;;;;;;;;;;;;;;;;;;4976241;28;19974;-57
2021/05/07 07:18:19;;;;;;;;;;;;;;;;;;4959845;28;20060;-56
2021/05/07 07:20:44;;;;;;;;;;;;;;;;;;4960019;28;19973;-57
2021/05/07 07:23:10;;;;;;;;;;;;;;;;;;4977096;28;20004;-58
2021/05/07 07:25:35;;;;;;;;;;;;;;;;;;4975914;28;19910;-58
2021/05/07 07:28:00;;;;;;;;;;;;;;;;;;4975579;28;19910;-57
2021/05/07 07:30:26;;;;;;;;;;;;;;;;;;4976857;28;19910;-59
2021/05/07 07:32:51;;;;;;;;;;;;;;;;;;4976009;28;19929;-58
2021/05/07 07:35:18;;;;;;;;;;;;;;;;;;4977568;28;19921;-54
2021/05/07 07:37:43;;;;;;;;;;;;;;;;;;4975739;28;19999;-57
2021/05/07 07:40:08;;;;;;;;;;;;;;;;;;4977087;28;20007;-57
2021/05/07 07:42:34;;;;;;;;;;;;;;;;;;4959457;28;19913;-57
2021/05/07 07:44:59;;;;;;;;;;;;;;;;;;4975920;28;19922;-57
2021/05/07 07:47:24;;;;;;;;;;;;;;;;;;4975234;28;19918;-56
2021/05/07 07:49:49;;;;;;;;;;;;;;;;;;4975750;28;20430;-57
2021/05/07 07:52:16;;;;;;;;;;;;;;;;;;4975647;28;20339;-57
2021/05/07 07:54:41;;;;;;;;;;;;;;;;;;4976235;28;20000;-57
2021/05/07 07:57:06;;;;;;;;;;;;;;;;;;4977350;28;19953;-58
2021/05/07 07:59:33;;;;;;;;;;;;;;;;;;4975466;28;20358;-58
2021/05/07 08:01:58;;;;;;;;;;;;;;;;;;4976940;28;19913;-57
2021/05/07 08:04:23;;;;;;;;;;;;;;;;;;4976778;28;19914;-59
2021/05/07 08:06:48;;;;;;;;;;;;;;;;;;4975585;28;19918;-59
2021/05/07 08:09:14;;;;;;;;;;;;;;;;;;4975025;28;20259;-58
2021/05/07 08:11:39;;;;;;;;;;;;;;;;;;4976204;28;20359;-58
2021/05/07 08:14:04;;;;;;;;;;;;;;;;;;4975232;28;20047;-58
2021/05/07 08:16:30;;;;;;;;;;;;;;;;;;4975751;28;20382;-58
2021/05/07 08:18:55;;;;;;;;;;;;;;;;;;4974922;28;20310;-57
2021/05/07 08:21:21;;;;;;;;;;;;;;;;;;4975003;28;19921;-58
2021/05/07 08:23:46;;;;;;;;;;;;;;;;;;4958638;28;19914;-58
2021/05/07 08:26:11;;;;;;;;;;;;;;;;;;4975908;28;20005;-57
2021/05/07 08:28:36;;;;;;;;;;;;;;;;;;4975772;28;20231;-58
2021/05/07 08:31:02;;;;;;;;;;;;;;;;;;4974969;28;19910;-58
2021/05/07 08:33:27;;;;;;;;;;;;;;;;;;4974698;28;19930;-60
2021/05/07 08:35:52;;;;;;;;;;;;;;;;;;4974789;28;19910;-59
2021/05/07 08:38:17;;;;;;;;;;;;;;;;;;4974619;28;19911;-58
2021/05/07 08:40:43;;;;;;;;;;;;;;;;;;4975661;28;19906;-58
2021/05/07 08:43:08;;;;;;;;;;;;;;;;;;4974837;28;19988;-61
2021/05/07 08:45:33;;;;;;;;;;;;;;;;;;4974226;28;19914;-58
2021/05/07 08:47:58;;;;;;;;;;;;;;;;;;4973840;28;19996;-58
2021/05/07 08:50:24;;;;;;;;;;;;;;;;;;4975314;28;19968;-59
2021/05/07 08:52:49;;;;;;;;;;;;;;;;;;4973797;28;19909;-59
2021/05/07 08:55:14;;;;;;;;;;;;;;;;;;4975117;28;19917;-60
2021/05/07 08:57:40;;;;;;;;;;;;;;;;;;4973897;28;19918;-58
2021/05/07 09:00:06;;;;;;;;;;;;;;;;;;4975163;28;19965;-59
2021/05/07 09:02:31;;;;;;;;;;;;;;;;;;4973679;28;20004;-59
2021/05/07 09:04:57;;;;;;;;;;;;;;;;;;4974160;28;20009;-59
2021/05/07 09:07:22;;;;;;;;;;;;;;;;;;4974517;28;20367;-58
2021/05/07 09:09:47;;;;;;;;;;;;;;;;;;4970353;28;19981;-58
2021/05/07 09:12:14;;;;;;;;;;;;;;;;;;4976239;28;19930;-57
2021/05/07 09:14:39;;;;;;;;;;;;;;;;;;4975189;28;20370;-57
2021/05/07 09:17:04;;;;;;;;;;;;;;;;;;4976562;28;19997;-59
2021/05/07 09:19:29;;;;;;;;;;;;;;;;;;4975317;28;20377;-59
2021/05/07 09:21:54;;;;;;;;;;;;;;;;;;4974633;28;20329;-59
2021/05/07 09:24:20;;;;;;;;;;;;;;;;;;4973287;28;19914;-59
2021/05/07 09:26:45;;;;;;;;;;;;;;;;;;4975681;28;20377;-57
2021/05/07 09:29:10;;;;;;;;;;;;;;;;;;4975339;28;19945;-55
2021/05/07 09:31:35;;;;;;;;;;;;;;;;;;4975217;28;20350;-58
2021/05/07 09:34:01;;;;;;;;;;;;;;;;;;4975164;28;19910;-57
2021/05/07 09:36:26;;;;;;;;;;;;;;;;;;4974359;28;19910;-60
2021/05/07 09:38:51;;;;;;;;;;;;;;;;;;4974037;28;19969;-59
2021/05/07 09:41:16;;;;;;;;;;;;;;;;;;4973869;28;20274;-58
2021/05/07 09:43:42;;;;;;;;;;;;;;;;;;4974831;28;19914;-57
2021/05/07 09:46:07;;;;;;;;;;;;;;;;;;4973553;28;20346;-58
2021/05/07 09:48:32;;;;;;;;;;;;;;;;;;4974960;28;19910;-57
2021/05/07 09:50:58;;;;;;;;;;;;;;;;;;4973828;28;19912;-59
2021/05/07 09:53:23;;;;;;;;;;;;;;;;;;4974596;28;19921;-58
2021/05/07 09:55:49;;;;;;;;;;;;;;;;;;4974468;28;19906;-58
2021/05/07 09:58:14;;;;;;;;;;;;;;;;;;4974975;28;20374;-59
2021/05/07 10:00:39;;;;;;;;;;;;;;;;;;4973366;28;19910;-58
2021/05/07 10:03:05;;;;;;;;;;;;;;;;;;4974856;28;19921;-58
2021/05/07 10:05:30;;;;;;;;;;;;;;;;;;4957647;28;19910;-57
2021/05/07 10:07:57;;;;;;;;;;;;;;;;;;4974959;28;19914;-55
2021/05/07 10:10:23;;;;;;;;;;;;;;;;;;4974333;28;19910;-57
2021/05/07 10:12:48;;;;;;;;;;;;;;;;;;4974603;28;19906;-55
2021/05/07 10:15:13;;;;;;;;;;;;;;;;;;4974618;28;19917;-56
2021/05/07 10:17:38;;;;;;;;;;;;;;;;;;4973292;28;19910;-53
2021/05/07 10:20:04;;;;;;;;;;;;;;;;;;4974391;28;20020;-55
2021/05/07 10:22:29;;;;;;;;;;;;;;;;;;4957391;28;20322;-56
2021/05/07 10:24:54;;;;;;;;;;;;;;;;;;4973298;28;20433;-57
2021/05/07 10:27:19;;;;;;;;;;;;;;;;;;4973333;28;20285;-56
2021/05/07 10:29:45;;;;;;;;;;;;;;;;;;4974333;28;20374;-58
2021/05/07 10:32:10;;;;;;;;;;;;;;;;;;4974002;28;19953;-59
2021/05/07 10:34:35;;;;;;;;;;;;;;;;;;4972349;28;19910;-58
2021/05/07 10:37:01;;;;;;;;;;;;;;;;;;4973695;28;19910;-59
2021/05/07 10:39:26;;;;;;;;;;;;;;;;;;4973352;28;19965;-58
2021/05/07 10:41:52;;;;;;;;;;;;;;;;;;4974048;28;19961;-58
2021/05/07 10:44:17;;;;;;;;;;;;;;;;;;4974393;28;19944;-58
2021/05/07 10:46:42;;;;;;;;;;;;;;;;;;4972424;28;19918;-58
2021/05/07 10:49:07;;;;;;;;;;;;;;;;;;4974401;28;19910;-58
2021/05/07 10:51:33;;;;;;;;;;;;;;;;;;4974845;28;19910;-58
2021/05/07 10:53:58;;;;;;;;;;;;;;;;;;4973033;28;19973;-58
2021/05/07 10:56:23;;;;;;;;;;;;;;;;;;4974881;28;19917;-59
2021/05/07 10:58:48;;;;;;;;;;;;;;;;;;4974312;28;20223;-59
2021/05/07 11:01:14;;;;;;;;;;;;;;;;;;4956986;28;19969;-60
2021/05/07 11:03:39;;;;;;;;;;;;;;;;;;4974319;28;19922;-58
2021/05/07 11:06:05;;;;;;;;;;;;;;;;;;4974835;28;19906;-59
2021/05/07 11:08:30;;;;;;;;;;;;;;;;;;4979633;28;19917;-59
2021/05/07 11:10:55;;;;;;;;;;;;;;;;;;4981939;28;19910;-60
2021/05/07 11:13:20;;;;;;;;;;;;;;;;;;4981890;28;19910;-59
2021/05/07 11:15:46;;;;;;;;;;;;;;;;;;4973324;28;20279;-60
2021/05/07 11:18:11;;;;;;;;;;;;;;;;;;4974638;28;19992;-59
2021/05/07 11:20:36;;;;;;;;;;;;;;;;;;4981280;28;19906;-59
2021/05/07 11:23:01;;;;;;;;;;;;;;;;;;4986265;28;19917;-59
2021/05/07 11:25:27;;;;;;;;;;;;;;;;;;4984830;28;19956;-57
2021/05/07 11:27:52;;;;;;;;;;;;;;;;;;4975516;28;20347;-58
2021/05/07 11:30:17;;;;;;;;;;;;;;;;;;4974823;28;19914;-59
2021/05/07 11:32:42;;;;;;;;;;;;;;;;;;4973001;28;19917;-59
2021/05/07 11:35:08;;;;;;;;;;;;;;;;;;4973206;28;19910;-58
2021/05/07 11:37:33;;;;;;;;;;;;;;;;;;4973464;28;19960;-58
2021/05/07 11:39:58;;;;;;;;;;;;;;;;;;4973105;28;19910;-60
2021/05/07 11:42:23;;;;;;;;;;;;;;;;;;4972474;28;19910;-59
2021/05/07 11:44:49;;;;;;;;;;;;;;;;;;4976286;28;20000;-59
2021/05/07 11:47:14;;;;;;;;;;;;;;;;;;4977234;28;19922;-59
2021/05/07 11:49:39;;;;;;;;;;;;;;;;;;4977210;28;19957;-59
2021/05/07 11:52:05;;;;;;;;;;;;;;;;;;4976804;28;19965;-59
2021/05/07 11:54:30;;;;;;;;;;;;;;;;;;4975653;28;19906;-59
2021/05/07 11:56:56;;;;;;;;;;;;;;;;;;4975618;28;19913;-60
2021/05/07 11:59:21;;;;;;;;;;;;;;;;;;4976964;28;19914;-59
2021/05/07 12:01:46;;;;;;;;;;;;;;;;;;4975402;28;19921;-59
2021/05/07 12:04:12;;;;;;;;;;;;;;;;;;4975979;28;19910;-59
2021/05/07 12:06:37;;;;;;;;;;;;;;;;;;4977330;28;19914;-59
2021/05/07 12:09:02;;;;;;;;;;;;;;;;;;4976395;28;19917;-59
2021/05/07 12:11:27;;;;;;;;;;;;;;;;;;4976663;28;19914;-58
2021/05/07 12:13:52;;;;;;;;;;;;;;;;;;4976529;28;19910;-58
2021/05/07 12:16:18;;;;;;;;;;;;;;;;;;4983693;28;20002;-59
2021/05/07 12:18:43;;;;;;;;;;;;;;;;;;4966636;28;20001;-59
2021/05/07 12:21:09;;;;;;;;;;;;;;;;;;4978060;28;20064;-59
2021/05/07 12:23:34;;;;;;;;;;;;;;;;;;4976517;28;20346;-59
2021/05/07 12:25:59;;;;;;;;;;;;;;;;;;4981111;28;19914;-59
2021/05/07 12:28:25;;;;;;;;;;;;;;;;;;4986223;28;19910;-58
2021/05/07 12:30:50;;;;;;;;;;;;;;;;;;4977678;28;19972;-59
2021/05/07 12:33:15;;;;;;;;;;;;;;;;;;4976618;28;19914;-59
2021/05/07 12:35:40;;;;;;;;;;;;;;;;;;4976679;28;19906;-59
2021/05/07 12:38:05;;;;;;;;;;;;;;;;;;4975120;28;20060;-58
2021/05/07 12:40:31;;;;;;;;;;;;;;;;;;4974929;28;20354;-59
2021/05/07 12:42:56;;;;;;;;;;;;;;;;;;4976254;28;20008;-58
2021/05/07 12:45:21;;;;;;;;;;;;;;;;;;4976168;28;19921;-59
2021/05/07 12:47:46;;;;;;;;;;;;;;;;;;4976636;28;19922;-58
2021/05/07 12:50:12;;;;;;;;;;;;;;;;;;4976300;28;19964;-58
2021/05/07 12:52:38;;;;;;;;;;;;;;;;;;4975519;28;19996;-58
2021/05/07 12:55:03;;;;;;;;;;;;;;;;;;4976021;28;19941;-59
2021/05/07 12:57:29;;;;;;;;;;;;;;;;;;4976321;28;19910;-58
2021/05/07 12:59:54;;;;;;;;;;;;;;;;;;4975642;28;20255;-59
2021/05/07 13:02:19;;;;;;;;;;;;;;;;;;4958884;28;19914;-58
2021/05/07 13:04:44;;;;;;;;;;;;;;;;;;4974989;28;20001;-58
2021/05/07 13:07:10;;;;;;;;;;;;;;;;;;4974253;28;20358;-58
2021/05/07 13:09:35;;;;;;;;;;;;;;;;;;4974388;28;19914;-56
2021/05/07 13:12:00;;;;;;;;;;;;;;;;;;4975340;28;19910;-59
2021/05/07 13:14:26;;;;;;;;;;;;;;;;;;4975252;28;19910;-58
2021/05/07 13:16:51;;;;;;;;;;;;;;;;;;4974152;28;19937;-58
2021/05/07 13:19:17;;;;;;;;;;;;;;;;;;4975039;28;19910;-59
2021/05/07 13:21:42;;;;;;;;;;;;;;;;;;4975053;28;20363;-58
2021/05/07 13:24:08;;;;;;;;;;;;;;;;;;4975244;28;20321;-59
2021/05/07 13:26:33;;;;;;;;;;;;;;;;;;4974427;28;19961;-59
2021/05/07 13:29:00;;;;;;;;;;;;;;;;;;4974959;28;19910;-58
2021/05/07 13:31:25;;;;;;;;;;;;;;;;;;4975476;28;20008;-59
2021/05/07 13:33:50;;;;;;;;;;;;;;;;;;4974013;28;20342;-58
2021/05/07 13:36:15;;;;;;;;;;;;;;;;;;4974453;28;19910;-58
2021/05/07 13:38:41;;;;;;;;;;;;;;;;;;4975392;28;19917;-58
2021/05/07 13:41:06;;;;;;;;;;;;;;;;;;4973727;28;19914;-58
2021/05/07 13:43:32;;;;;;;;;;;;;;;;;;4974431;28;19928;-58
2021/05/07 13:45:57;;;;;;;;;;;;;;;;;;4973663;28;20309;-58
2021/05/07 13:48:22;;;;;;;;;;;;;;;;;;4973311;28;19918;-59
2021/05/07 13:50:48;;;;;;;;;;;;;;;;;;4974389;28;19914;-58
2021/05/07 13:53:13;;;;;;;;;;;;;;;;;;4974895;28;19942;-59
2021/05/07 13:55:38;;;;;;;;;;;;;;;;;;4975035;28;20350;-58
2021/05/07 13:58:03;;;;;;;;;;;;;;;;;;4974759;28;19933;-58
2021/05/07 14:00:29;;;;;;;;;;;;;;;;;;4974870;28;19906;-59
2021/05/07 14:02:54;;;;;;;;;;;;;;;;;;4974255;28;19913;-58
2021/05/07 14:05:19;;;;;;;;;;;;;;;;;;4974665;28;19960;-58
2021/05/07 14:07:44;;;;;;;;;;;;;;;;;;4974158;28;19910;-58
2021/05/07 14:10:10;;;;;;;;;;;;;;;;;;4974579;28;20000;-58
2021/05/07 14:12:35;;;;;;;;;;;;;;;;;;4974882;28;19910;-59
2021/05/07 14:15:00;;;;;;;;;;;;;;;;;;4974438;28;19918;-58
2021/05/07 14:17:25;;;;;;;;;;;;;;;;;;4972951;28;20354;-58
2021/05/07 14:19:51;;;;;;;;;;;;;;;;;;4974253;28;19910;-58
2021/05/07 14:22:16;;;;;;;;;;;;;;;;;;4973503;28;19910;-58
2021/05/07 14:24:41;;;;;;;;;;;;;;;;;;4974379;28;19920;-59
2021/05/07 14:27:06;;;;;;;;;;;;;;;;;;4973907;28;19910;-59
2021/05/07 14:29:32;;;;;;;;;;;;;;;;;;4973465;28;19961;-59
2021/05/07 14:31:57;;;;;;;;;;;;;;;;;;4973577;28;20405;-58
2021/05/07 14:34:22;;;;;;;;;;;;;;;;;;4973074;28;19909;-58
2021/05/07 14:36:47;;;;;;;;;;;;;;;;;;4973744;28;19925;-58
2021/05/07 14:39:12;;;;;;;;;;;;;;;;;;4973725;28;19917;-59
2021/05/07 14:41:38;;;;;;;;;;;;;;;;;;4973029;28;19914;-58
2021/05/07 14:44:03;;;;;;;;;;;;;;;;;;4974016;28;20061;-59
2021/05/07 14:46:28;;;;;;;;;;;;;;;;;;4973754;28;20009;-59
2021/05/07 14:48:53;;;;;;;;;;;;;;;;;;4973698;28;20011;-59
2021/05/07 14:51:18;;;;;;;;;;;;;;;;;;4973488;28;19917;-58
2021/05/07 14:53:44;;;;;;;;;;;;;;;;;;4973146;28;19937;-59
2021/05/07 14:56:11;;;;;;;;;;;;;;;;;;4972831;28;19984;-59
2021/05/07 14:58:37;;;;;;;;;;;;;;;;;;4974263;28;20351;-58
2021/05/07 15:01:02;;;;;;;;;;;;;;;;;;4973703;28;19917;-59
2021/05/07 15:03:27;;;;;;;;;;;;;;;;;;4972588;28;20363;-58
2021/05/07 15:05:55;;;;;;;;;;;;;;;;;;4973564;28;19910;-58
2021/05/07 15:08:21;;;;;;;;;;;;;;;;;;4973825;28;19913;-58
2021/05/07 15:10:47;;;;;;;;;;;;;;;;;;4973808;28;19910;-57
2021/05/07 15:13:12;;;;;;;;;;;;;;;;;;4973666;28;19983;-58
2021/05/07 15:15:37;;;;;;;;;;;;;;;;;;4973818;28;19914;-58
2021/05/07 15:18:02;;;;;;;;;;;;;;;;;;4973999;28;19913;-58
2021/05/07 15:20:28;;;;;;;;;;;;;;;;;;4976246;28;19978;-57
2021/05/07 15:22:53;;;;;;;;;;;;;;;;;;4976272;28;20358;-59
2021/05/07 15:25:18;;;;;;;;;;;;;;;;;;4977070;28;19921;-59
2021/05/07 15:27:43;;;;;;;;;;;;;;;;;;4977322;28;20351;-58
2021/05/07 15:30:09;;;;;;;;;;;;;;;;;;4977492;28;19910;-57
2021/05/07 15:32:34;;;;;;;;;;;;;;;;;;4975626;28;19956;-57
2021/05/07 15:35:00;;;;;;;;;;;;;;;;;;4977057;28;19932;-58
2021/05/07 15:37:25;;;;;;;;;;;;;;;;;;4977031;28;19914;-58
2021/05/07 15:39:50;;;;;;;;;;;;;;;;;;4977154;28;20417;-58
2021/05/07 15:42:15;;;;;;;;;;;;;;;;;;4975873;28;19945;-58
2021/05/07 15:44:41;;;;;;;;;;;;;;;;;;4977152;28;19980;-58
2021/05/07 15:47:06;;;;;;;;;;;;;;;;;;4975368;28;19957;-58
2021/05/07 15:49:34;;;;;;;;;;;;;;;;;;4976132;28;19916;-58
2021/05/07 15:51:59;;;;;;;;;;;;;;;;;;4976500;28;19992;-58
2021/05/07 15:54:24;;;;;;;;;;;;;;;;;;4976496;28;19993;-58
2021/05/07 15:56:49;;;;;;;;;;;;;;;;;;4976639;28;19918;-57
2021/05/07 15:59:15;;;;;;;;;;;;;;;;;;4976661;28;19914;-58
2021/05/07 16:01:40;;;;;;;;;;;;;;;;;;4975476;28;20286;-60
2021/05/07 16:04:05;;;;;;;;;;;;;;;;;;4975984;28;19960;-58
2021/05/07 16:06:30;;;;;;;;;;;;;;;;;;4975793;28;19929;-57
2021/05/07 16:08:56;;;;;;;;;;;;;;;;;;4976574;28;19914;-59
2021/05/07 16:11:21;;;;;;;;;;;;;;;;;;4974842;28;19910;-58
2021/05/07 16:13:46;;;;;;;;;;;;;;;;;;4975406;28;19910;-57
2021/05/07 16:16:12;;;;;;;;;;;;;;;;;;4975979;28;19909;-58
2021/05/07 16:18:37;;;;;;;;;;;;;;;;;;4975038;28;19913;-56
2021/05/07 16:21:03;;;;;;;;;;;;;;;;;;4975045;28;19910;-57
2021/05/07 16:23:28;;;;;;;;;;;;;;;;;;4958145;28;19914;-56
2021/05/07 16:25:54;;;;;;;;;;;;;;;;;;4974364;28;20342;-57
2021/05/07 16:28:19;;;;;;;;;;;;;;;;;;4974412;28;19917;-57
2021/05/07 16:30:44;;;;;;;;;;;;;;;;;;4973499;28;19929;-57
2021/05/07 16:33:09;;;;;;;;;;;;;;;;;;4974350;28;19917;-59
2021/05/07 16:35:35;;;;;;;;;;;;;;;;;;4973468;28;20021;-57